createdAt,value
2022-07-25T00:00:15.356Z,41.30
2022-07-25T00:02:44.119Z,40.95
2022-07-25T00:05:12.949Z,40.98
2022-07-25T00:07:41.024Z,40.88
2022-07-25T00:10:09.991Z,42.11
2022-07-25T00:12:37.978Z,41.86
2022-07-25T00:15:07.155Z,42.12
2022-07-25T00:17:36.461Z,42.64
2022-07-25T00:20:05.820Z,41.63
2022-07-25T00:22:33.820Z,42.74
2022-07-25T00:25:01.938Z,42.17
2022-07-25T00:27:29.873Z,42.00
2022-07-25T00:29:57.844Z,42.65
2022-07-25T00:32:25.774Z,43.00
2022-07-25T00:34:55.061Z,41.98
2022-07-25T00:37:26.315Z,41.75
2022-07-25T00:39:54.261Z,41.60
2022-07-25T00:42:24.139Z,42.22
2022-07-25T00:44:52.580Z,43.11
2022-07-25T00:47:20.563Z,42.48
2022-07-25T00:49:48.766Z,42.94
2022-07-25T00:52:18.109Z,43.60
2022-07-25T00:54:46.073Z,43.01
2022-07-25T00:57:14.001Z,44.62
2022-07-25T00:59:42.037Z,42.48
2022-07-25T01:02:10.018Z,43.93
2022-07-25T01:04:37.959Z,43.33
2022-07-25T01:07:06.191Z,42.97
2022-07-25T01:09:35.572Z,44.82
2022-07-25T01:12:03.567Z,43.22
2022-07-25T01:14:31.766Z,43.28
2022-07-25T01:16:59.701Z,43.86
2022-07-25T01:19:27.663Z,44.28
2022-07-25T01:21:56.944Z,43.48
2022-07-25T01:24:24.943Z,42.92
2022-07-25T01:26:52.947Z,44.40
2022-07-25T01:29:20.894Z,44.36
2022-07-25T01:31:48.835Z,43.53
2022-07-25T01:34:16.807Z,45.91
2022-07-25T01:36:44.740Z,43.96
2022-07-25T01:39:14.091Z,43.24
2022-07-25T01:41:42.061Z,45.21
2022-07-25T01:44:10.378Z,44.13
2022-07-25T01:46:38.476Z,44.73
2022-07-25T01:49:06.592Z,44.18
2022-07-25T01:51:34.680Z,44.57
2022-07-25T01:54:02.849Z,44.03
2022-07-25T01:56:33.977Z,44.43
2022-07-25T01:59:01.884Z,43.76
2022-07-25T02:01:29.874Z,43.56
2022-07-25T02:03:57.871Z,43.37
2022-07-25T02:06:25.803Z,43.85
2022-07-25T02:08:53.780Z,44.61
2022-07-25T02:11:21.823Z,43.27
2022-07-25T02:13:51.293Z,44.69
2022-07-25T02:16:19.429Z,43.19
2022-07-25T02:18:57.502Z,43.90
2022-07-25T02:21:26.012Z,44.92
2022-07-25T02:23:54.332Z,45.04
2022-07-25T02:26:22.293Z,43.44
2022-07-25T02:28:54.301Z,43.32
2022-07-25T02:31:22.326Z,43.75
2022-07-25T02:33:50.321Z,43.15
2022-07-25T02:36:18.405Z,43.36
2022-07-25T02:38:46.466Z,43.28
2022-07-25T02:41:14.422Z,43.38
2022-07-25T02:43:42.366Z,43.53
2022-07-25T02:46:11.930Z,43.06
2022-07-25T02:48:39.988Z,43.56
2022-07-25T02:51:08.221Z,43.86
2022-07-25T02:53:56.216Z,42.93
2022-07-25T02:56:24.058Z,43.37
2022-07-25T02:58:52.499Z,43.71
2022-07-25T03:01:21.865Z,43.75
2022-07-25T03:03:49.882Z,44.29
2022-07-25T03:06:18.230Z,43.59
2022-07-25T03:08:46.129Z,43.85
2022-07-25T03:11:14.716Z,43.79
2022-07-25T03:13:42.686Z,43.86
2022-07-25T03:16:11.161Z,43.83
2022-07-25T03:18:40.487Z,44.01
2022-07-25T03:21:08.930Z,44.15
2022-07-25T03:23:36.952Z,44.08
2022-07-25T03:26:05.153Z,45.42
2022-07-25T03:28:33.081Z,44.27
2022-07-25T03:31:01.105Z,44.35
2022-07-25T03:33:29.106Z,44.52
2022-07-25T03:35:58.426Z,44.71
2022-07-25T03:38:26.395Z,44.62
2022-07-25T03:40:54.338Z,44.58
2022-07-25T03:43:22.293Z,44.00
2022-07-25T03:45:50.322Z,45.08
2022-07-25T03:48:18.233Z,45.10
2022-07-25T03:50:46.238Z,44.46
2022-07-25T03:53:16.517Z,44.63
2022-07-25T03:55:44.468Z,44.87
2022-07-25T03:58:12.401Z,44.73
2022-07-25T04:00:40.364Z,45.29
2022-07-25T04:03:08.354Z,44.47
2022-07-25T04:05:36.300Z,47.89
2022-07-25T04:08:04.333Z,45.66
2022-07-25T04:10:34.384Z,45.64
2022-07-25T04:13:03.501Z,45.12
2022-07-25T04:15:31.531Z,45.11
2022-07-25T04:17:59.504Z,44.97
2022-07-25T04:20:28.606Z,45.24
2022-07-25T04:22:57.364Z,44.72
2022-07-25T04:25:25.255Z,45.04
2022-07-25T04:27:54.590Z,45.61
2022-07-25T04:30:23.835Z,44.71
2022-07-25T04:32:53.182Z,44.83
2022-07-25T04:35:21.288Z,44.75
2022-07-25T04:37:49.322Z,45.11
2022-07-25T04:40:17.228Z,44.83
2022-07-25T04:43:11.692Z,44.42
2022-07-25T04:45:40.855Z,45.24
2022-07-25T04:48:09.409Z,44.44
2022-07-25T04:50:37.377Z,45.29
2022-07-25T04:53:05.601Z,44.43
2022-07-25T04:55:33.855Z,45.33
2022-07-25T04:58:01.830Z,44.22
2022-07-25T05:00:31.635Z,45.18
2022-07-25T05:03:00.018Z,43.90
2022-07-25T05:05:28.007Z,45.01
2022-07-25T05:07:57.970Z,44.26
2022-07-25T05:10:26.173Z,44.86
2022-07-25T05:12:54.163Z,44.50
2022-07-25T05:15:22.505Z,47.08
2022-07-25T05:17:51.816Z,46.29
2022-07-25T05:20:19.870Z,45.54
2022-07-25T05:22:47.936Z,44.64
2022-07-25T05:25:15.976Z,46.00
2022-07-25T05:27:43.881Z,46.08
2022-07-25T05:30:13.555Z,44.45
2022-07-25T05:32:42.622Z,44.40
2022-07-25T05:35:12.174Z,43.69
2022-07-25T05:37:40.199Z,43.66
2022-07-25T05:40:08.988Z,42.88
2022-07-25T05:42:36.958Z,42.74
2022-07-25T05:45:05.532Z,42.33
2022-07-25T05:47:33.493Z,40.58
2022-07-25T05:50:02.213Z,39.44
2022-07-25T05:52:31.630Z,43.36
2022-07-25T05:54:59.538Z,42.35
2022-07-25T05:57:27.601Z,41.13
2022-07-25T05:59:55.510Z,44.21
2022-07-25T06:02:23.622Z,43.53
2022-07-25T06:04:51.697Z,41.68
2022-07-25T06:07:19.637Z,41.84
2022-07-25T06:09:48.960Z,41.46
2022-07-25T06:12:16.994Z,41.70
2022-07-25T06:14:45.386Z,40.84
2022-07-25T06:17:13.712Z,41.66
2022-07-25T06:19:41.719Z,40.99
2022-07-25T06:22:11.271Z,40.33
2022-07-25T06:24:39.684Z,40.17
2022-07-25T06:27:09.747Z,39.95
2022-07-25T06:29:39.381Z,43.26
2022-07-25T06:32:07.736Z,42.44
2022-07-25T06:34:35.818Z,42.45
2022-07-25T06:37:04.046Z,43.83
2022-07-25T06:39:32.027Z,40.05
2022-07-25T06:42:00.966Z,40.49
2022-07-25T06:44:36.514Z,40.65
2022-07-25T06:47:05.701Z,40.27
2022-07-25T06:49:33.619Z,41.15
2022-07-25T06:52:01.552Z,40.54
2022-07-25T06:54:29.500Z,40.64
2022-07-25T06:56:57.611Z,39.80
2022-07-25T06:59:26.173Z,41.15
2022-07-25T07:01:55.689Z,40.41
2022-07-25T07:04:23.632Z,39.62
2022-07-25T07:06:51.595Z,40.14
2022-07-25T07:09:19.516Z,39.51
2022-07-25T07:11:47.497Z,39.99
2022-07-25T07:14:15.405Z,39.68
2022-07-25T07:16:43.415Z,39.69
2022-07-25T07:19:14.571Z,40.35
2022-07-25T07:21:43.726Z,40.81
2022-07-25T07:24:23.399Z,38.98
2022-07-25T07:26:52.651Z,39.29
2022-07-25T07:29:20.626Z,40.15
2022-07-25T07:31:48.676Z,38.97
2022-07-25T07:34:18.173Z,38.86
2022-07-25T07:36:46.128Z,39.35
2022-07-25T07:39:14.671Z,38.36
2022-07-25T07:41:42.588Z,38.51
2022-07-25T07:44:10.562Z,38.66
2022-07-25T07:46:38.643Z,38.89
2022-07-25T07:49:06.936Z,38.12
2022-07-25T07:51:36.511Z,38.04
2022-07-25T07:54:25.040Z,39.04
2022-07-25T07:56:52.993Z,38.21
2022-07-25T07:59:22.142Z,38.84
2022-07-25T08:01:50.115Z,37.99
2022-07-25T08:04:18.147Z,38.89
2022-07-25T08:06:47.504Z,37.76
2022-07-25T08:09:15.527Z,38.50
2022-07-25T08:11:43.439Z,38.96
2022-07-25T08:14:11.365Z,37.86
2022-07-25T08:16:39.369Z,37.75
2022-07-25T08:19:07.488Z,39.22
2022-07-25T08:21:35.559Z,37.87
2022-07-25T08:24:05.873Z,37.75
2022-07-25T08:26:37.047Z,38.95
2022-07-25T08:29:18.689Z,37.41
2022-07-25T08:31:47.559Z,37.58
2022-07-25T08:34:15.695Z,37.16
2022-07-25T08:36:44.298Z,37.23
2022-07-25T08:39:18.629Z,37.30
2022-07-25T08:41:46.934Z,37.00
2022-07-25T08:44:16.972Z,37.57
2022-07-25T08:46:46.673Z,37.78
2022-07-25T08:49:15.439Z,38.09
2022-07-25T08:51:43.901Z,38.49
2022-07-25T08:54:12.081Z,36.71
2022-07-25T08:56:43.627Z,37.29
2022-07-25T08:59:11.778Z,36.13
2022-07-25T09:01:41.399Z,36.07
2022-07-25T09:04:12.177Z,36.16
2022-07-25T09:06:50.861Z,35.87
2022-07-25T09:09:19.707Z,35.86
2022-07-25T09:11:51.078Z,36.06
2022-07-25T09:14:22.374Z,36.30
2022-07-25T09:16:50.773Z,34.83
2022-07-25T09:19:22.862Z,36.23
2022-07-25T09:22:03.617Z,33.36
2022-07-25T09:24:38.266Z,33.04
2022-07-25T09:27:13.914Z,31.44
2022-07-25T09:29:43.806Z,31.13
2022-07-25T09:32:19.425Z,30.55
2022-07-25T09:34:49.337Z,28.92
2022-07-25T09:37:26.371Z,28.09
2022-07-25T09:39:56.633Z,29.06
2022-07-25T09:42:30.588Z,27.66
2022-07-25T09:45:00.538Z,28.10
2022-07-25T09:47:29.030Z,28.64
2022-07-25T09:49:57.888Z,27.08
2022-07-25T09:52:26.142Z,27.44
2022-07-25T09:54:55.584Z,27.77
2022-07-25T09:57:27.097Z,28.03
2022-07-25T09:59:56.546Z,27.15
2022-07-25T10:02:39.190Z,27.58
2022-07-25T10:05:15.150Z,26.96
2022-07-25T10:07:47.589Z,26.50
2022-07-25T10:10:30.940Z,26.24
2022-07-25T10:13:09.885Z,26.25
2022-07-25T10:15:45.513Z,26.22
2022-07-25T10:18:14.620Z,25.92
2022-07-25T10:20:43.075Z,27.01
2022-07-25T10:23:25.648Z,25.91
2022-07-25T10:26:04.813Z,25.78
2022-07-25T10:28:44.765Z,25.55
2022-07-25T10:31:21.708Z,26.40
2022-07-25T10:33:52.863Z,26.50
2022-07-25T10:36:21.640Z,26.24
2022-07-25T10:38:52.671Z,26.50
2022-07-25T10:41:26.025Z,26.00
2022-07-25T10:44:00.743Z,25.69
2022-07-25T10:46:32.563Z,25.98
2022-07-25T10:49:02.852Z,25.78
2022-07-25T10:51:35.107Z,26.24
2022-07-25T10:54:17.384Z,25.41
2022-07-25T10:56:54.640Z,25.37
2022-07-25T10:59:31.132Z,25.76
2022-07-25T11:02:01.290Z,26.42
2022-07-25T11:04:30.477Z,24.92
2022-07-25T11:07:12.593Z,24.53
2022-07-25T11:09:41.677Z,24.97
2022-07-25T11:12:10.794Z,25.78
2022-07-25T11:14:41.439Z,25.25
2022-07-25T11:17:16.372Z,25.22
2022-07-25T11:19:46.472Z,23.44
2022-07-25T11:22:14.454Z,24.89
2022-07-25T11:24:44.452Z,25.58
2022-07-25T11:27:15.373Z,25.65
2022-07-25T11:29:43.451Z,24.78
2022-07-25T11:32:13.246Z,25.95
2022-07-25T11:34:45.174Z,25.23
2022-07-25T11:37:14.687Z,24.84
2022-07-25T11:39:44.566Z,24.66
2022-07-25T11:42:16.351Z,24.03
2022-07-25T11:44:48.068Z,23.79
2022-07-25T11:47:32.192Z,24.97
2022-07-25T11:50:05.279Z,25.37
2022-07-25T11:52:34.730Z,23.77
2022-07-25T11:55:04.440Z,23.36
2022-07-25T11:57:34.905Z,24.06
2022-07-25T12:00:03.671Z,24.13
2022-07-25T12:02:40.850Z,23.70
2022-07-25T12:05:12.493Z,25.12
2022-07-25T12:07:44.851Z,23.68
2022-07-25T12:10:17.449Z,26.24
2022-07-25T12:12:46.387Z,24.73
2022-07-25T12:15:15.270Z,26.15
2022-07-25T12:17:44.444Z,25.29
2022-07-25T12:20:17.420Z,25.81
2022-07-25T12:22:46.112Z,24.06
2022-07-25T12:25:14.940Z,23.76
2022-07-25T12:27:43.116Z,23.05
2022-07-25T12:30:13.057Z,26.19
2022-07-25T12:32:41.623Z,24.11
2022-07-25T12:35:12.739Z,24.95
2022-07-25T12:37:43.937Z,23.94
2022-07-25T12:40:14.270Z,25.59
2022-07-25T12:42:43.089Z,24.91
2022-07-25T12:45:12.383Z,24.22
2022-07-25T12:47:41.220Z,23.30
2022-07-25T12:50:11.026Z,24.42
2022-07-25T12:52:39.533Z,24.01
2022-07-25T12:55:11.461Z,24.39
2022-07-25T12:57:40.259Z,24.58
2022-07-25T13:00:11.085Z,24.10
2022-07-25T13:02:39.792Z,25.63
2022-07-25T13:05:09.135Z,24.91
2022-07-25T13:07:37.457Z,23.67
2022-07-25T13:10:07.379Z,24.85
2022-07-25T13:12:36.905Z,24.87
2022-07-25T13:15:05.852Z,25.00
2022-07-25T13:17:34.365Z,25.84
2022-07-25T13:20:02.948Z,26.61
2022-07-25T13:22:31.203Z,25.08
2022-07-25T13:24:59.116Z,27.21
2022-07-25T13:27:27.291Z,25.18
2022-07-25T13:29:58.102Z,26.33
2022-07-25T13:32:28.397Z,26.72
2022-07-25T13:34:56.655Z,24.85
2022-07-25T13:37:24.646Z,26.55
2022-07-25T13:39:52.920Z,26.17
2022-07-25T13:42:20.966Z,25.02
2022-07-25T13:44:49.107Z,24.79
2022-07-25T13:47:18.654Z,25.06
2022-07-25T13:49:46.745Z,24.91
2022-07-25T13:52:14.729Z,24.78
2022-07-25T13:54:42.795Z,24.83
2022-07-25T13:57:11.200Z,24.79
2022-07-25T13:59:39.599Z,25.46
2022-07-25T14:02:07.962Z,24.76
2022-07-25T14:04:37.833Z,25.56
2022-07-25T14:07:07.339Z,24.96
2022-07-25T14:09:35.732Z,24.54
2022-07-25T14:12:03.731Z,24.87
2022-07-25T14:14:31.720Z,24.80
2022-07-25T14:16:59.778Z,24.05
2022-07-25T14:19:27.706Z,25.09
2022-07-25T14:21:57.050Z,24.59
2022-07-25T14:24:24.979Z,23.69
2022-07-25T14:26:54.010Z,23.80
2022-07-25T14:29:25.952Z,25.16
2022-07-25T14:31:57.004Z,24.41
2022-07-25T14:34:25.034Z,24.72
2022-07-25T14:36:53.020Z,23.93
2022-07-25T14:39:22.336Z,24.39
2022-07-25T14:41:50.407Z,25.51
2022-07-25T14:44:18.615Z,24.86
2022-07-25T14:46:49.019Z,25.32
2022-07-25T14:49:17.661Z,25.11
2022-07-25T14:51:46.124Z,25.21
2022-07-25T14:54:14.684Z,25.48
2022-07-25T14:56:44.427Z,25.52
2022-07-25T14:59:12.910Z,25.74
2022-07-25T15:01:41.242Z,26.17
2022-07-25T15:04:09.483Z,24.08
2022-07-25T15:06:37.516Z,25.04
2022-07-25T15:09:05.859Z,24.92
2022-07-25T15:11:34.073Z,24.59
2022-07-25T15:14:03.364Z,24.93
2022-07-25T15:16:31.433Z,24.46
2022-07-25T15:19:15.927Z,24.94
2022-07-25T15:21:44.716Z,25.08
2022-07-25T15:24:12.867Z,24.42
2022-07-25T15:26:41.124Z,24.73
2022-07-25T15:29:11.989Z,24.79
2022-07-25T15:31:40.376Z,25.26
2022-07-25T15:34:08.686Z,25.10
2022-07-25T15:36:36.694Z,24.51
2022-07-25T15:39:05.179Z,24.33
2022-07-25T15:41:33.409Z,24.65
2022-07-25T15:44:01.631Z,25.12
2022-07-25T15:46:31.221Z,24.51
2022-07-25T15:48:59.328Z,23.93
2022-07-25T15:51:27.354Z,23.71
2022-07-25T15:53:55.260Z,24.71
2022-07-25T15:56:23.989Z,24.06
2022-07-25T15:58:52.315Z,25.17
2022-07-25T16:01:20.374Z,24.32
2022-07-25T16:03:49.940Z,24.53
2022-07-25T16:06:20.713Z,24.39
2022-07-25T16:08:50.119Z,24.60
2022-07-25T16:11:24.886Z,24.59
2022-07-25T16:13:52.764Z,24.85
2022-07-25T16:16:22.052Z,24.96
2022-07-25T16:18:52.032Z,24.77
2022-07-25T16:21:19.944Z,24.94
2022-07-25T16:23:48.114Z,25.02
2022-07-25T16:26:16.135Z,25.15
2022-07-25T16:28:45.320Z,24.49
2022-07-25T16:31:13.400Z,25.93
2022-07-25T16:33:41.309Z,24.78
2022-07-25T16:36:12.199Z,24.65
2022-07-25T16:38:40.598Z,25.08
2022-07-25T16:41:08.647Z,24.81
2022-07-25T16:43:36.638Z,25.28
2022-07-25T16:46:04.711Z,27.31
2022-07-25T16:48:32.890Z,25.79
2022-07-25T16:51:00.993Z,25.77
2022-07-25T16:53:30.341Z,28.31
2022-07-25T16:55:58.530Z,32.58
2022-07-25T16:58:27.002Z,33.34
2022-07-25T17:00:55.070Z,34.55
2022-07-25T17:03:23.132Z,36.09
2022-07-25T17:05:51.758Z,37.67
2022-07-25T17:08:19.854Z,39.55
2022-07-25T17:10:49.377Z,39.36
2022-07-25T17:13:17.365Z,38.31
2022-07-25T17:15:45.571Z,38.54
2022-07-25T17:18:14.157Z,39.12
2022-07-25T17:20:42.104Z,38.23
2022-07-25T17:23:10.047Z,38.98
2022-07-25T17:25:38.367Z,45.42
2022-07-25T17:28:07.998Z,47.26
2022-07-25T17:30:36.217Z,46.85
2022-07-25T17:33:04.238Z,47.37
2022-07-25T17:35:33.069Z,46.03
2022-07-25T17:38:01.043Z,46.89
2022-07-25T17:40:29.068Z,50.33
2022-07-25T17:42:57.655Z,47.51
2022-07-25T17:45:27.322Z,50.93
2022-07-25T17:47:55.351Z,49.84
2022-07-25T17:50:29.169Z,54.22
2022-07-25T17:52:59.489Z,50.82
2022-07-25T17:55:28.722Z,50.58
2022-07-25T17:57:59.503Z,49.08
2022-07-25T18:00:28.943Z,53.51
2022-07-25T18:02:56.951Z,54.89
2022-07-25T18:05:25.107Z,51.51
2022-07-25T18:07:53.894Z,52.58
2022-07-25T18:10:22.571Z,51.26
2022-07-25T18:12:51.221Z,49.21
2022-07-25T18:15:19.354Z,52.10
2022-07-25T18:17:49.604Z,51.71
2022-07-25T18:20:20.431Z,52.98
2022-07-25T18:22:48.423Z,50.71
2022-07-25T18:25:17.085Z,52.24
2022-07-25T18:27:46.616Z,53.42
2022-07-25T18:30:16.821Z,52.73
2022-07-25T18:32:45.640Z,54.61
2022-07-25T18:35:15.163Z,52.68
2022-07-25T18:37:43.796Z,52.46
2022-07-25T18:40:13.587Z,54.22
2022-07-25T18:42:41.794Z,53.43
2022-07-25T18:45:11.358Z,52.29
2022-07-25T18:47:40.300Z,52.15
2022-07-25T18:50:09.151Z,52.71
2022-07-25T18:52:38.779Z,52.64
2022-07-25T18:55:09.843Z,53.12
2022-07-25T18:57:38.031Z,53.38
2022-07-25T19:00:07.432Z,53.55
2022-07-25T19:02:35.424Z,53.84
2022-07-25T19:05:03.456Z,53.69
2022-07-25T19:07:31.456Z,55.11
2022-07-25T19:10:00.775Z,53.79
2022-07-25T19:12:28.888Z,54.00
2022-07-25T19:14:57.313Z,53.79
2022-07-25T19:17:25.325Z,53.59
2022-07-25T19:19:53.676Z,53.55
2022-07-25T19:22:21.995Z,53.26
2022-07-25T19:24:49.984Z,54.31
2022-07-25T19:27:19.779Z,52.34
2022-07-25T19:29:47.829Z,53.35
2022-07-25T19:32:16.116Z,52.77
2022-07-25T19:34:46.082Z,52.83
2022-07-25T19:37:14.163Z,52.53
2022-07-25T19:39:42.063Z,52.38
2022-07-25T19:42:12.215Z,52.62
2022-07-25T19:44:41.641Z,52.98
2022-07-25T19:47:11.828Z,52.85
2022-07-25T19:49:40.636Z,54.63
2022-07-25T19:52:09.420Z,54.77
2022-07-25T19:54:37.521Z,53.79
2022-07-25T19:57:05.793Z,52.50
2022-07-25T19:59:33.832Z,51.31
2022-07-25T20:02:03.773Z,51.84
2022-07-25T20:04:31.977Z,52.34
2022-07-25T20:07:02.219Z,50.99
2022-07-25T20:09:30.390Z,49.78
2022-07-25T20:11:58.810Z,50.07
2022-07-25T20:14:27.076Z,50.83
2022-07-25T20:16:55.195Z,50.73
2022-07-25T20:19:25.367Z,50.13
2022-07-25T20:21:53.520Z,51.91
2022-07-25T20:24:21.952Z,53.14
2022-07-25T20:26:50.261Z,54.81
2022-07-25T20:29:18.286Z,54.29
2022-07-25T20:31:46.332Z,55.73
2022-07-25T20:34:14.625Z,54.93
2022-07-25T20:36:44.107Z,56.12
2022-07-25T20:39:13.218Z,56.97
2022-07-25T20:41:41.814Z,57.08
2022-07-25T20:44:13.214Z,57.01
2022-07-25T20:46:41.352Z,57.31
2022-07-25T20:49:10.754Z,57.79
2022-07-25T20:51:40.857Z,57.90
2022-07-25T20:54:10.614Z,58.77
2022-07-25T20:56:38.578Z,59.36
2022-07-25T20:59:06.966Z,60.22
2022-07-25T21:01:35.447Z,61.30
2022-07-25T21:04:07.447Z,60.75
2022-07-25T21:06:36.737Z,61.17
2022-07-25T21:09:05.859Z,62.10
2022-07-25T21:11:35.964Z,61.81
2022-07-25T21:14:04.494Z,61.75
2022-07-25T21:16:33.455Z,61.43
2022-07-25T21:19:01.492Z,61.16
2022-07-25T21:21:29.490Z,61.96
2022-07-25T21:23:57.614Z,62.28
2022-07-25T21:26:25.563Z,60.50
2022-07-25T21:28:54.866Z,61.38
2022-07-25T21:31:23.557Z,61.64
2022-07-25T21:33:51.703Z,61.28
2022-07-25T21:36:19.642Z,62.18
2022-07-25T21:38:47.589Z,62.54
2022-07-25T21:41:16.012Z,60.50
2022-07-25T21:43:44.211Z,63.00
2022-07-25T21:46:13.647Z,63.48
2022-07-25T21:48:59.188Z,62.89
2022-07-25T21:51:30.413Z,62.53
2022-07-25T21:54:08.761Z,65.12
2022-07-25T21:56:36.763Z,70.10
2022-07-25T21:59:05.401Z,71.81
2022-07-25T22:01:35.035Z,71.17
2022-07-25T22:04:03.170Z,73.55
2022-07-25T22:06:31.205Z,74.50
2022-07-25T22:08:59.216Z,75.61
2022-07-25T22:11:42.892Z,73.83
2022-07-25T22:14:14.489Z,73.29
2022-07-25T22:16:44.155Z,73.48
2022-07-25T22:19:12.167Z,73.26
2022-07-25T22:21:40.556Z,73.64
2022-07-25T22:24:09.471Z,72.44
2022-07-25T22:26:37.722Z,76.25
2022-07-25T22:29:06.127Z,78.38
2022-07-25T22:31:34.401Z,80.34
2022-07-25T22:34:03.815Z,82.40
2022-07-25T22:36:31.768Z,82.00
2022-07-25T22:38:59.720Z,80.00
2022-07-25T22:41:27.879Z,77.86
2022-07-25T22:43:58.830Z,80.54
2022-07-25T22:46:28.525Z,80.74
2022-07-25T22:48:57.471Z,79.54
2022-07-25T22:51:27.479Z,79.79
2022-07-25T22:53:55.746Z,76.98
2022-07-25T22:56:24.064Z,76.58
2022-07-25T22:58:52.033Z,79.54
2022-07-25T23:01:20.468Z,78.67
2022-07-25T23:03:50.395Z,78.92
2022-07-25T23:06:19.249Z,81.62
2022-07-25T23:08:48.999Z,82.17
2022-07-25T23:11:17.426Z,81.84
2022-07-25T23:13:45.413Z,80.74
2022-07-25T23:16:13.374Z,80.12
2022-07-25T23:18:41.488Z,81.47
2022-07-25T23:21:09.528Z,78.80
2022-07-25T23:23:37.563Z,80.76
2022-07-25T23:26:07.023Z,82.80
2022-07-25T23:28:35.053Z,82.50
2022-07-25T23:31:03.208Z,83.31
2022-07-25T23:33:31.839Z,84.42
2022-07-25T23:36:00.272Z,83.97
2022-07-25T23:38:28.451Z,81.91
2022-07-25T23:40:56.566Z,83.66
2022-07-25T23:43:53.053Z,84.16
2022-07-25T23:46:14.059Z,82.01
2022-07-25T23:48:43.144Z,78.84
2022-07-25T23:51:11.254Z,84.21
2022-07-25T23:53:39.260Z,82.13
2022-07-25T23:56:07.405Z,81.83
2022-07-25T23:58:36.668Z,81.05
